createdAt,value
2019-05-05T00:02:56.732Z,99773.52
2019-05-05T00:08:01.825Z,99783.28
2019-05-05T00:13:29.364Z,99778.77
2019-05-05T00:18:35.215Z,99791.16
2019-05-05T00:23:40.210Z,99797.73
2019-05-05T00:28:45.869Z,99802.43
2019-05-05T00:33:51.110Z,99806.11
2019-05-05T00:38:56.756Z,99807.92
2019-05-05T00:44:01.804Z,99812.61
2019-05-05T00:49:06.856Z,99817.05
2019-05-05T00:54:11.872Z,99830.98
2019-05-05T00:59:18.670Z,99834.94
2019-05-05T01:04:30.974Z,99839.67
2019-05-05T01:09:37.955Z,99844.91
2019-05-05T01:14:44.753Z,99849.60
2019-05-05T01:20:01.335Z,99862.74
2019-05-05T01:24:57.931Z,99865.63
2019-05-05T01:30:04.777Z,99876.16
2019-05-05T01:35:10.510Z,99886.20
2019-05-05T01:40:38.907Z,99882.20
2019-05-05T01:45:45.317Z,99901.33
2019-05-05T01:50:51.027Z,99907.55
2019-05-05T01:55:56.765Z,99910.17
2019-05-05T02:01:19.990Z,99914.72
2019-05-05T02:06:25.082Z,99926.54
2019-05-05T02:11:30.146Z,99930.74
2019-05-05T02:16:35.723Z,99946.20
2019-05-05T02:21:40.828Z,99949.88
2019-05-05T02:26:45.864Z,99948.05
2019-05-05T02:32:08.703Z,99950.15
2019-05-05T02:37:16.092Z,99953.24
2019-05-05T02:42:24.837Z,99960.30
2019-05-05T02:47:54.718Z,99963.48
2019-05-05T02:53:01.208Z,99966.45
2019-05-05T02:58:06.641Z,99976.94
2019-05-05T03:03:21.250Z,99983.16
2019-05-05T03:08:27.401Z,99985.69
2019-05-05T03:13:33.795Z,99994.13
2019-05-05T03:18:38.932Z,99996.95
2019-05-05T03:23:56.719Z,99996.56
2019-05-05T03:29:04.790Z,100021.92
2019-05-05T03:34:10.378Z,100024.08
2019-05-05T03:39:24.353Z,100020.67
2019-05-05T03:44:33.743Z,100018.82
2019-05-05T03:49:39.593Z,100030.91
2019-05-05T03:54:46.178Z,100025.58
2019-05-05T03:59:57.502Z,100031.09
2019-05-05T04:05:27.906Z,100033.47
2019-05-05T04:10:33.581Z,100043.91
2019-05-05T04:15:40.663Z,100036.53
2019-05-05T04:20:45.751Z,100038.59
2019-05-05T04:25:51.207Z,100034.58
2019-05-05T04:30:59.613Z,100044.59
2019-05-05T04:36:04.806Z,100044.59
2019-05-05T04:41:09.940Z,100050.10
2019-05-05T04:46:15.838Z,100053.27
2019-05-05T04:51:25.281Z,100056.99
2019-05-05T04:56:30.404Z,100060.47
2019-05-05T05:01:36.070Z,100063.13
2019-05-05T05:06:46.243Z,100067.11
2019-05-05T05:11:51.317Z,100075.75
2019-05-05T05:16:57.612Z,100075.00
2019-05-05T05:22:08.006Z,100078.94
2019-05-05T05:27:13.937Z,100087.36
2019-05-05T05:32:19.794Z,100104.13
2019-05-05T05:37:25.085Z,100111.86
2019-05-05T05:42:30.454Z,100115.98
2019-05-05T05:47:53.721Z,100124.16
2019-05-05T05:53:04.786Z,100129.56
2019-05-05T05:58:10.973Z,100138.09
2019-05-05T06:03:16.832Z,100141.11
2019-05-05T06:08:24.119Z,100157.24
2019-05-05T06:13:28.797Z,100158.20
2019-05-05T06:18:34.571Z,100170.39
2019-05-05T06:23:43.547Z,100164.95
2019-05-05T06:28:48.364Z,100169.59
2019-05-05T06:33:55.992Z,100176.83
2019-05-05T06:39:01.518Z,100169.56
2019-05-05T06:44:27.789Z,100164.14
2019-05-05T06:49:34.494Z,100165.19
2019-05-05T06:54:40.319Z,100161.20
2019-05-05T06:59:45.436Z,100156.30
2019-05-05T07:04:51.010Z,100162.05
2019-05-05T07:09:56.132Z,100170.48
2019-05-05T07:15:04.050Z,100167.92
2019-05-05T07:20:08.538Z,100177.57
2019-05-05T07:25:15.256Z,100171.59
2019-05-05T07:30:24.283Z,100185.19
2019-05-05T07:35:55.385Z,100183.12
2019-05-05T07:40:51.534Z,100183.47
2019-05-05T07:45:57.190Z,100183.15
2019-05-05T07:51:05.292Z,100182.95
2019-05-05T07:56:10.054Z,100187.27
2019-05-05T08:01:15.156Z,100195.34
2019-05-05T08:06:21.120Z,100200.72
2019-05-05T08:11:36.861Z,100206.31
2019-05-05T08:17:01.658Z,100213.27
2019-05-05T08:22:11.087Z,100210.91
2019-05-05T08:27:38.250Z,100217.23
2019-05-05T08:33:24.075Z,100221.50
2019-05-05T08:38:29.252Z,100226.53
2019-05-05T08:43:34.930Z,100231.02
2019-05-05T08:48:41.414Z,100230.22
2019-05-05T08:53:48.411Z,100235.53
2019-05-05T08:58:55.262Z,100229.18
2019-05-05T09:04:00.873Z,100227.86
2019-05-05T09:09:09.888Z,100216.73
2019-05-05T09:14:15.132Z,100220.39
2019-05-05T09:19:24.724Z,100229.14
2019-05-05T09:24:38.453Z,100226.52
2019-05-05T09:29:44.488Z,100219.38
2019-05-05T09:34:50.281Z,100215.68
2019-05-05T09:40:05.425Z,100229.45
2019-05-05T09:45:13.974Z,100208.27
2019-05-05T09:50:20.189Z,100207.90
2019-05-05T09:55:25.810Z,100222.91
2019-05-05T10:00:33.631Z,100227.77
2019-05-05T10:05:39.269Z,100221.94
2019-05-05T10:10:44.705Z,100229.86
2019-05-05T10:15:49.925Z,100238.30
2019-05-05T10:20:57.794Z,100238.44
2019-05-05T10:26:05.904Z,100241.72
2019-05-05T10:31:11.166Z,100237.63
2019-05-05T10:36:19.061Z,100251.77
2019-05-05T10:41:39.934Z,100252.33
2019-05-05T10:47:06.923Z,100251.83
2019-05-05T10:52:14.209Z,100244.98
2019-05-05T10:57:20.583Z,100246.07
2019-05-05T11:02:27.210Z,100245.00
2019-05-05T11:07:34.100Z,100243.57
2019-05-05T11:12:53.528Z,100237.08
2019-05-05T11:17:58.830Z,100233.80
2019-05-05T11:23:05.004Z,100236.86
2019-05-05T11:28:10.908Z,100227.99
2019-05-05T11:33:51.059Z,100230.78
2019-05-05T11:38:58.094Z,100224.12
2019-05-05T11:44:04.098Z,100229.24
2019-05-05T11:49:15.258Z,100235.64
2019-05-05T11:54:21.329Z,100226.78
2019-05-05T11:59:26.817Z,100223.84
2019-05-05T12:04:33.534Z,100232.94
2019-05-05T12:09:57.693Z,100235.83
2019-05-05T12:15:08.208Z,100242.03
2019-05-05T12:20:15.630Z,100239.15
2019-05-05T12:25:39.724Z,100234.64
2019-05-05T12:30:44.782Z,100229.93
2019-05-05T12:35:50.032Z,100234.99
2019-05-05T12:41:06.059Z,100237.52
2019-05-05T12:46:21.886Z,100231.80
2019-05-05T12:51:28.382Z,100236.34
2019-05-05T12:56:36.558Z,100240.22
2019-05-05T13:01:44.124Z,100227.97
2019-05-05T13:06:49.904Z,100228.73
2019-05-05T13:12:06.896Z,100234.22
2019-05-05T13:17:14.055Z,100233.91
2019-05-05T13:22:38.579Z,100237.83
2019-05-05T13:27:44.525Z,100240.17
2019-05-05T13:32:50.588Z,100234.22
2019-05-05T13:37:55.873Z,100239.35
2019-05-05T13:43:01.172Z,100239.30
2019-05-05T13:48:14.145Z,100247.89
2019-05-05T13:53:19.818Z,100240.78
2019-05-05T13:58:27.118Z,100238.27
2019-05-05T14:03:34.124Z,100243.15
2019-05-05T14:08:39.522Z,100246.88
2019-05-05T14:13:48.470Z,100241.41
2019-05-05T14:18:54.702Z,100234.17
2019-05-05T14:24:08.980Z,100224.64
2019-05-05T14:29:34.634Z,100229.05
2019-05-05T14:34:44.046Z,100224.25
2019-05-05T14:39:48.880Z,100224.17
2019-05-05T14:44:55.080Z,100227.01
2019-05-05T14:50:01.019Z,100221.83
2019-05-05T14:55:07.694Z,100229.80
2019-05-05T15:00:18.026Z,100227.91
2019-05-05T15:05:45.486Z,100229.68
2019-05-05T15:11:05.695Z,100225.45
2019-05-05T15:16:11.334Z,100222.70
2019-05-05T15:21:23.649Z,100217.47
2019-05-05T15:26:29.211Z,100214.88
2019-05-05T15:31:35.844Z,100217.50
2019-05-05T15:36:41.320Z,100215.62
2019-05-05T15:41:47.353Z,100215.25
2019-05-05T15:46:57.710Z,100212.73
2019-05-05T15:52:04.186Z,100213.73
2019-05-05T15:57:11.914Z,100217.41
2019-05-05T16:02:17.713Z,100215.33
2019-05-05T16:07:24.253Z,100217.42
2019-05-05T16:12:34.108Z,100219.27
2019-05-05T16:17:48.528Z,100215.70
2019-05-05T16:23:17.432Z,100214.70
2019-05-05T16:28:24.896Z,100214.44
2019-05-05T16:33:30.177Z,100220.48
2019-05-05T16:38:36.376Z,100220.91
2019-05-05T16:43:55.174Z,100221.99
2019-05-05T16:49:03.536Z,100222.55
2019-05-05T16:54:16.586Z,100229.27
2019-05-05T16:59:23.721Z,100219.44
2019-05-05T17:04:28.998Z,100220.43
2019-05-05T17:09:34.749Z,100224.73
2019-05-05T17:15:10.024Z,100222.90
2019-05-05T17:40:15.141Z,100220.27
2019-05-05T17:45:26.727Z,100220.96
2019-05-05T17:50:57.094Z,100234.05
2019-05-05T17:56:03.929Z,100230.06
2019-05-05T18:01:09.806Z,100236.48
2019-05-05T18:06:38.794Z,100236.19
2019-05-05T18:12:01.877Z,100233.81
2019-05-05T18:17:07.228Z,100238.38
2019-05-05T18:22:13.939Z,100243.25
2019-05-05T18:27:19.332Z,100248.08
2019-05-05T18:32:24.514Z,100252.36
2019-05-05T18:37:29.980Z,100254.23
2019-05-05T18:42:38.720Z,100255.81
2019-05-05T18:47:55.832Z,100265.70
2019-05-05T18:53:22.950Z,100274.44
2019-05-05T18:58:30.467Z,100270.29
2019-05-05T19:03:54.557Z,100270.54
2019-05-05T19:09:02.573Z,100276.98
2019-05-05T19:14:30.219Z,100271.16
2019-05-05T19:19:37.606Z,100274.52
2019-05-05T19:24:44.087Z,100279.33
2019-05-05T19:29:53.503Z,100276.44
2019-05-05T19:34:58.231Z,100273.48
2019-05-05T19:40:14.173Z,100273.57
2019-05-05T19:45:19.392Z,100274.95
2019-05-05T19:55:58.258Z,100288.00
2019-05-05T20:01:05.035Z,100290.14
2019-05-05T20:06:14.184Z,100286.73
2019-05-05T20:11:20.660Z,100276.42
2019-05-05T20:16:37.578Z,100285.97
2019-05-05T20:21:43.929Z,100286.25
2019-05-05T20:26:49.785Z,100285.75
2019-05-05T20:31:56.693Z,100279.66
2019-05-05T20:37:14.328Z,100283.63
2019-05-05T20:42:19.957Z,100280.71
2019-05-05T20:47:25.066Z,100279.16
2019-05-05T20:52:34.565Z,100276.79
2019-05-05T20:57:40.194Z,100271.73
2019-05-05T21:02:45.209Z,100274.39
2019-05-05T21:07:50.287Z,100273.62
2019-05-05T21:12:55.443Z,100279.19
2019-05-05T21:18:00.569Z,100285.27
2019-05-05T21:23:16.366Z,100277.59
2019-05-05T21:28:24.197Z,100271.52
2019-05-05T21:33:29.344Z,100274.67
2019-05-05T21:38:35.618Z,100269.65
2019-05-05T21:43:41.457Z,100269.65
2019-05-05T21:48:47.196Z,100272.84
2019-05-05T21:54:10.650Z,100274.17
2019-05-05T21:59:15.754Z,100279.75
2019-05-05T22:04:23.939Z,100272.85
2019-05-05T22:09:29.131Z,100275.78
2019-05-05T22:14:34.238Z,100268.34
2019-05-05T22:19:44.532Z,100263.05
2019-05-05T22:24:50.728Z,100257.24
2019-05-05T22:30:09.163Z,100258.81
2019-05-05T22:35:02.623Z,100265.69
2019-05-05T22:40:07.927Z,100259.08
2019-05-05T22:45:14.237Z,100261.73
2019-05-05T22:50:19.377Z,100261.72
2019-05-05T22:55:24.859Z,100258.84
2019-05-05T23:00:31.451Z,100254.86
2019-05-05T23:05:45.542Z,100257.72
2019-05-05T23:10:50.549Z,100256.39
2019-05-05T23:16:05.643Z,100253.75
2019-05-05T23:21:44.195Z,100251.13
2019-05-05T23:26:51.694Z,100250.87
2019-05-05T23:32:09.929Z,100255.61
2019-05-05T23:37:14.954Z,100261.68
2019-05-05T23:42:20.041Z,100264.32
2019-05-05T23:47:25.639Z,100263.81
2019-05-05T23:52:30.845Z,100263.55
2019-05-05T23:57:35.848Z,100263.55
